Time;durP1;ratioP1;P1;durP2;ratioP2;P2;SDS_P1;SDS_P2;PMS_P1;PMS_P2;Temp;Humidity;BMP_temperature;BMP_pressure;BME280_temperature;BME280_humidity;BME280_pressure;Samples;Min_cycle;Max_cycle;Signal;HPM_P1;HPM_P2
2023/06/20 00:02:15;;;;;;;7.85;5.05;;;23.40;99.90;;;;;;5055171;28;20051;-87
2023/06/20 00:04:41;;;;;;;6.65;4.75;;;23.40;99.90;;;;;;5049690;28;20029;-83
2023/06/20 00:07:06;;;;;;;5.57;4.63;;;23.40;99.90;;;;;;5019654;28;20025;-88
2023/06/20 00:09:32;;;;;;;11.77;5.05;;;23.40;99.90;;;;;;5016823;28;20399;-84
2023/06/20 00:11:58;;;;;;;7.00;4.43;;;23.40;99.90;;;;;;5015820;28;20049;-85
2023/06/20 00:14:24;;;;;;;5.82;4.28;;;23.40;99.90;;;;;;5030503;28;20025;-89
2023/06/20 00:16:49;;;;;;;7.13;4.45;;;23.40;99.90;;;;;;5041364;28;20116;-82
2023/06/20 00:19:15;;;;;;;8.27;4.88;;;23.50;99.90;;;;;;5021835;28;20113;-81
2023/06/20 00:21:40;;;;;;;6.93;4.45;;;23.50;99.90;;;;;;5016423;28;21655;-79
2023/06/20 00:24:09;;;;;;;5.93;4.80;;;23.50;99.90;;;;;;5034076;28;20029;-79
2023/06/20 00:26:38;;;;;;;7.05;4.25;;;23.40;99.90;;;;;;5033383;28;20100;-81
2023/06/20 00:29:04;;;;;;;10.57;4.53;;;23.20;99.90;;;;;;5033773;28;20022;-80
2023/06/20 00:31:31;;;;;;;6.38;4.72;;;23.20;99.90;;;;;;5015657;28;20053;-80
2023/06/20 00:33:56;;;;;;;9.23;5.28;;;23.20;99.90;;;;;;5019033;28;20120;-80
2023/06/20 00:36:25;;;;;;;8.43;5.03;;;23.20;99.90;;;;;;5033353;28;20116;-83
2023/06/20 00:38:52;;;;;;;8.75;5.50;;;23.20;99.90;;;;;;5025443;28;20034;-79
2023/06/20 00:41:20;;;;;;;6.55;4.70;;;23.10;99.90;;;;;;5032874;28;20033;-80
2023/06/20 00:43:49;;;;;;;5.30;4.22;;;23.20;99.90;;;;;;5024883;28;20033;-80
2023/06/20 00:46:22;;;;;;;5.57;4.38;;;23.10;99.90;;;;;;5033760;28;20025;-80
2023/06/20 00:48:48;;;;;;;7.03;4.45;;;23.20;99.90;;;;;;5025267;28;20072;-81
2023/06/20 00:51:16;;;;;;;8.10;5.00;;;23.20;99.90;;;;;;5016222;28;20117;-80
2023/06/20 00:53:42;;;;;;;6.40;4.60;;;23.20;99.90;;;;;;5014429;28;20021;-81
2023/06/20 00:56:10;;;;;;;8.50;4.88;;;23.10;99.90;;;;;;5026862;28;20393;-79
2023/06/20 00:58:36;;;;;;;9.18;5.35;;;23.20;99.90;;;;;;5032606;28;20406;-80
2023/06/20 01:01:01;;;;;;;5.47;4.53;;;23.10;99.90;;;;;;5033321;28;20032;-80
2023/06/20 01:03:28;;;;;;;7.95;5.20;;;23.00;99.90;;;;;;5032765;28;20025;-81
2023/06/20 01:06:06;;;;;;;7.38;5.07;;;23.00;99.90;;;;;;5033142;28;20061;-81
2023/06/20 01:08:43;;;;;;;7.85;5.55;;;23.10;99.90;;;;;;5033662;28;20170;-80
2023/06/20 01:11:41;;;;;;;7.68;5.07;;;23.10;99.90;;;;;;5033882;28;20371;-81
2023/06/20 01:14:31;;;;;;;5.75;5.03;;;23.10;99.90;;;;;;5033232;28;20370;-80
2023/06/20 01:17:02;;;;;;;9.40;5.05;;;23.10;99.90;;;;;;5033136;28;20033;-80
2023/06/20 01:19:56;;;;;;;7.40;5.28;;;23.00;99.90;;;;;;5033560;28;20032;-81
2023/06/20 01:23:05;;;;;;;7.53;4.68;;;23.10;99.90;;;;;;5034058;28;20025;-81
2023/06/20 01:25:54;;;;;;;6.90;5.45;;;23.10;99.90;;;;;;5032315;28;20030;-81
2023/06/20 01:28:44;;;;;;;8.35;5.43;;;23.00;99.90;;;;;;5033900;28;20414;-80
2023/06/20 01:31:17;;;;;;;9.65;5.00;;;23.00;99.90;;;;;;5033148;28;20418;-80
2023/06/20 01:33:56;;;;;;;8.90;5.32;;;23.00;99.90;;;;;;5032345;28;20099;-79
2023/06/20 01:36:22;;;;;;;9.32;5.78;;;23.00;99.90;;;;;;5032200;28;20124;-81
2023/06/20 01:39:01;;;;;;;8.10;5.05;;;23.00;99.90;;;;;;5033434;28;20083;-80
2023/06/20 01:41:28;;;;;;;7.75;5.07;;;23.00;99.90;;;;;;5033040;28;20049;-81
2023/06/20 01:43:56;;;;;;;9.43;5.72;;;22.90;99.90;;;;;;5033247;28;20040;-80
2023/06/20 01:46:22;;;;;;;7.05;4.85;;;22.90;99.90;;;;;;5033226;28;20087;-81
2023/06/20 01:48:51;;;;;;;7.00;5.03;;;22.90;99.90;;;;;;5032673;28;20036;-80
2023/06/20 01:51:18;;;;;;;6.97;5.10;;;22.90;99.90;;;;;;5033531;28;20112;-79
2023/06/20 01:53:45;;;;;;;7.30;5.78;;;22.80;99.90;;;;;;5033237;28;20033;-81
2023/06/20 01:56:12;;;;;;;7.85;5.53;;;22.70;99.90;;;;;;5032306;28;20030;-81
2023/06/20 01:58:41;;;;;;;9.05;5.55;;;22.70;99.90;;;;;;5046375;28;20052;-81
2023/06/20 02:01:08;;;;;;;8.55;5.50;;;22.70;99.90;;;;;;5053245;28;20025;-80
2023/06/20 02:03:35;;;;;;;9.43;5.88;;;22.60;99.90;;;;;;5035615;28;20393;-81
2023/06/20 02:06:02;;;;;;;6.90;5.50;;;22.60;99.90;;;;;;5036178;28;20029;-80
2023/06/20 02:08:30;;;;;;;6.75;5.30;;;22.50;99.90;;;;;;5035894;28;20121;-82
2023/06/20 02:10:57;;;;;;;9.75;6.20;;;22.50;99.90;;;;;;5036596;28;20036;-79
2023/06/20 02:13:24;;;;;;;8.88;5.80;;;22.40;99.90;;;;;;5036205;28;20025;-79
2023/06/20 02:15:53;;;;;;;11.25;5.95;;;22.30;99.90;;;;;;5053066;28;20037;-79
2023/06/20 02:18:20;;;;;;;8.07;6.10;;;22.30;99.90;;;;;;5035864;28;20036;-80
2023/06/20 02:20:53;;;;;;;8.38;6.60;;;22.30;99.90;;;;;;5035562;28;20021;-80
2023/06/20 02:23:27;;;;;;;9.40;6.10;;;22.20;99.90;;;;;;5035797;28;20024;-79
2023/06/20 02:25:58;;;;;;;10.05;6.03;;;22.20;99.90;;;;;;5035865;28;20055;-79
2023/06/20 02:28:26;;;;;;;;;;;22.30;99.90;;;;;;5036157;28;20029;-80
2023/06/20 02:30:54;;;;;;;7.65;5.45;;;22.30;99.90;;;;;;5053078;28;19911;-80
2023/06/20 02:33:22;;;;;;;8.15;6.38;;;22.30;99.90;;;;;;5036046;28;20104;-80
2023/06/20 02:35:50;;;;;;;10.05;6.40;;;22.20;99.90;;;;;;5052711;28;20032;-81
2023/06/20 02:38:16;;;;;;;10.82;6.45;;;22.20;99.90;;;;;;5035812;28;20393;-79
2023/06/20 02:40:41;;;;;;;7.88;6.45;;;22.20;99.90;;;;;;5052838;28;20113;-81
2023/06/20 02:43:08;;;;;;;10.15;6.65;;;22.10;99.90;;;;;;5035734;28;20035;-80
2023/06/20 02:45:36;;;;;;;10.30;6.15;;;22.10;99.90;;;;;;5034911;28;20029;-81
2023/06/20 02:48:25;;;;;;;8.70;6.25;;;22.20;99.90;;;;;;5038672;28;20035;-81
2023/06/20 02:50:58;;;;;;;7.30;5.93;;;22.20;99.90;;;;;;5038955;28;20032;-81
2023/06/20 02:53:36;;;;;;;6.63;5.53;;;22.10;99.90;;;;;;5039331;28;20542;-81
2023/06/20 02:56:10;;;;;;;9.00;6.43;;;22.20;99.90;;;;;;5039045;28;20144;-81
2023/06/20 02:58:38;;;;;;;9.70;6.18;;;22.10;99.90;;;;;;5038283;28;20466;-81
2023/06/20 03:01:04;;;;;;;7.72;6.07;;;22.10;99.90;;;;;;5039150;28;20058;-80
2023/06/20 03:03:33;;;;;;;8.52;6.45;;;22.10;99.90;;;;;;5038834;28;20478;-81
2023/06/20 03:05:59;;;;;;;9.43;6.82;;;22.00;99.90;;;;;;5056614;28;20032;-80
2023/06/20 03:08:31;;;;;;;9.25;6.65;;;22.00;99.90;;;;;;5039043;28;20047;-81
2023/06/20 03:10:58;;;;;;;10.45;6.55;;;21.90;99.90;;;;;;5056886;28;20088;-80
2023/06/20 03:13:24;;;;;;;8.50;6.85;;;22.00;99.90;;;;;;5039003;28;20123;-80
2023/06/20 03:15:50;;;;;;;9.45;6.80;;;22.10;99.90;;;;;;5038298;28;20052;-81
2023/06/20 03:18:17;;;;;;;8.40;6.97;;;22.10;99.90;;;;;;5039083;28;20094;-80
2023/06/20 03:20:44;;;;;;;9.02;6.72;;;22.10;99.90;;;;;;5038607;28;20025;-81
2023/06/20 03:23:09;;;;;;;9.35;6.75;;;22.00;99.90;;;;;;5056224;28;20021;-80
2023/06/20 03:25:35;;;;;;;9.95;6.70;;;22.00;99.90;;;;;;5038081;28;20025;-81
2023/06/20 03:28:01;;;;;;;10.60;6.82;;;21.90;99.90;;;;;;5056031;28;20021;-80
2023/06/20 03:30:26;;;;;;;8.70;6.57;;;21.80;99.90;;;;;;5038568;28;20455;-80
2023/06/20 03:32:52;;;;;;;10.50;7.03;;;21.80;99.90;;;;;;5038160;28;20521;-80
2023/06/20 03:35:17;;;;;;;10.90;7.60;;;21.80;99.90;;;;;;5038227;28;20024;-81
2023/06/20 03:37:43;;;;;;;8.95;6.55;;;21.80;99.90;;;;;;5055410;28;20093;-80
2023/06/20 03:40:09;;;;;;;12.07;6.95;;;21.80;99.90;;;;;;5055974;28;20032;-80
2023/06/20 03:42:35;;;;;;;10.20;7.32;;;21.80;99.90;;;;;;5055507;28;20067;-80
2023/06/20 03:45:00;;;;;;;8.73;7.00;;;21.60;99.90;;;;;;5037949;28;20052;-80
2023/06/20 03:47:26;;;;;;;8.82;6.88;;;21.60;99.90;;;;;;5038673;28;20033;-80
2023/06/20 03:49:51;;;;;;;9.00;7.03;;;21.50;99.90;;;;;;5037964;28;20021;-81
2023/06/20 03:52:17;;;;;;;11.05;6.72;;;21.60;99.90;;;;;;5038469;28;20021;-81
2023/06/20 03:54:43;;;;;;;8.95;6.25;;;21.60;99.90;;;;;;5037743;28;20079;-81
2023/06/20 03:57:08;;;;;;;9.02;6.15;;;21.60;99.90;;;;;;5055841;28;20112;-80
2023/06/20 03:59:34;;;;;;;8.32;6.57;;;21.60;99.90;;;;;;5036477;28;20127;-81
2023/06/20 04:01:59;;;;;;;10.95;7.13;;;21.70;99.90;;;;;;5038283;28;20025;-81
2023/06/20 04:04:25;;;;;;;8.52;6.60;;;21.70;99.90;;;;;;5038105;28;20025;-81
2023/06/20 04:06:51;;;;;;;9.77;6.88;;;21.70;99.90;;;;;;5037541;28;20025;-82
2023/06/20 04:09:20;;;;;;;10.15;7.03;;;21.70;99.90;;;;;;5037528;28;20033;-81
2023/06/20 04:11:46;;;;;;;9.68;7.18;;;21.70;99.90;;;;;;5037517;28;20041;-81
2023/06/20 04:14:11;;;;;;;10.77;7.30;;;21.70;99.90;;;;;;5055345;28;20032;-81
2023/06/20 04:16:37;;;;;;;10.55;7.00;;;21.70;99.90;;;;;;5037213;28;20445;-82
2023/06/20 04:19:03;;;;;;;9.15;7.00;;;21.70;99.90;;;;;;5055256;28;20036;-80
2023/06/20 04:21:31;;;;;;;10.40;6.95;;;21.70;99.90;;;;;;5054861;28;20355;-79
2023/06/20 04:23:57;;;;;;;12.05;7.65;;;21.70;99.90;;;;;;5054583;28;20025;-79
2023/06/20 04:26:23;;;;;;;10.52;7.40;;;21.80;99.90;;;;;;5037198;28;20029;-79
2023/06/20 04:28:48;;;;;;;10.15;7.70;;;21.80;99.90;;;;;;5036915;28;20462;-79
2023/06/20 04:31:14;;;;;;;13.13;7.82;;;21.80;99.90;;;;;;5037043;28;20454;-79
2023/06/20 04:33:45;;;;;;;12.63;7.70;;;21.80;99.90;;;;;;5036324;28;20473;-79
2023/06/20 04:36:13;;;;;;;9.65;7.65;;;21.80;99.90;;;;;;5054332;28;20025;-78
2023/06/20 04:38:42;;;;;;;13.10;8.70;;;21.80;99.90;;;;;;5035903;28;20553;-79
2023/06/20 04:41:11;;;;;;;12.32;8.30;;;21.80;99.90;;;;;;5036642;28;20037;-78
2023/06/20 04:43:37;;;;;;;11.98;8.43;;;21.80;99.90;;;;;;5036025;28;20087;-80
2023/06/20 04:46:04;;;;;;;11.63;9.18;;;21.70;99.90;;;;;;5041587;28;20033;-80
2023/06/20 04:48:30;;;;;;;11.88;8.98;;;21.60;99.90;;;;;;5039908;28;20036;-79
2023/06/20 04:50:56;;;;;;;12.23;8.85;;;21.60;99.90;;;;;;5054577;28;20031;-79
2023/06/20 04:53:23;;;;;;;11.75;8.70;;;21.60;99.90;;;;;;5054530;28;20025;-79
2023/06/20 04:55:52;;;;;;;12.75;8.73;;;21.60;99.90;;;;;;5054117;28;20036;-80
2023/06/20 04:58:18;;;;;;;13.80;9.07;;;21.70;99.90;;;;;;5036669;28;20051;-79
2023/06/20 05:00:44;;;;;;;13.80;8.88;;;21.70;99.90;;;;;;5036562;28;20119;-79
2023/06/20 05:03:09;;;;;;;13.40;9.00;;;21.80;99.90;;;;;;5036908;28;20401;-80
2023/06/20 05:05:35;;;;;;;10.93;8.73;;;21.80;99.90;;;;;;5036167;28;20046;-80
2023/06/20 05:08:01;;;;;;;15.05;8.77;;;21.80;99.90;;;;;;5036052;28;20033;-80
2023/06/20 05:10:27;;;;;;;11.48;8.90;;;21.80;99.90;;;;;;5036044;28;20036;-79
2023/06/20 05:12:52;;;;;;;12.52;8.43;;;21.70;99.90;;;;;;5036461;28;20101;-81
2023/06/20 05:15:23;;;;;;;14.43;8.52;;;21.80;99.90;;;;;;5038532;28;20057;-81
2023/06/20 05:17:50;;;;;;;10.80;8.38;;;21.90;99.90;;;;;;5055952;28;20032;-79
2023/06/20 05:20:16;;;;;;;11.40;8.00;;;21.90;99.90;;;;;;5037505;28;20083;-81
2023/06/20 05:22:41;;;;;;;10.45;8.00;;;21.90;99.90;;;;;;5037370;28;20462;-80
2023/06/20 05:25:07;;;;;;;11.15;8.75;;;21.90;99.90;;;;;;5055367;28;20029;-81
2023/06/20 05:27:33;;;;;;;11.77;8.43;;;21.90;99.90;;;;;;5037903;28;20058;-81
2023/06/20 05:29:59;;;;;;;10.18;8.27;;;21.90;99.90;;;;;;5037919;28;20028;-81
2023/06/20 05:32:24;;;;;;;10.07;8.48;;;21.90;99.90;;;;;;5056082;28;20033;-80
2023/06/20 05:34:50;;;;;;;11.43;8.23;;;22.00;99.90;;;;;;5036408;28;20230;-81
2023/06/20 05:37:16;;;;;;;14.45;8.45;;;22.00;99.90;;;;;;5054731;28;20473;-81
2023/06/20 05:39:41;;;;;;;13.88;8.75;;;22.00;99.90;;;;;;5055023;28;20057;-81
2023/06/20 05:42:07;;;;;;;13.02;8.98;;;22.10;99.90;;;;;;5038111;28;20036;-79
2023/06/20 05:44:33;;;;;;;17.70;9.10;;;22.10;99.90;;;;;;5037002;28;20048;-80
2023/06/20 05:46:58;;;;;;;11.27;7.90;;;22.10;99.90;;;;;;5035712;28;20119;-81
2023/06/20 05:49:24;;;;;;;12.80;8.68;;;22.10;99.90;;;;;;5036836;28;20032;-80
2023/06/20 05:51:50;;;;;;;16.48;8.77;;;22.20;99.90;;;;;;5036169;28;20036;-80
2023/06/20 05:54:15;;;;;;;11.38;8.98;;;22.20;99.90;;;;;;5035591;28;20078;-80
2023/06/20 05:56:41;;;;;;;12.45;8.40;;;22.20;99.90;;;;;;5036005;28;20474;-81
2023/06/20 05:59:06;;;;;;;10.18;7.93;;;22.30;99.90;;;;;;5054426;28;20049;-79
2023/06/20 06:01:32;;;;;;;10.38;7.25;;;22.30;99.90;;;;;;5054413;28;20091;-80
2023/06/20 06:03:57;;;;;;;9.00;7.10;;;22.40;99.90;;;;;;5036257;28;20056;-80
2023/06/20 06:06:26;;;;;;;10.30;6.90;;;22.40;99.90;;;;;;5036431;28;20029;-79
2023/06/20 06:08:52;;;;;;;12.57;7.13;;;22.50;99.90;;;;;;5035545;28;20052;-80
2023/06/20 06:11:17;;;;;;;10.00;7.03;;;22.50;99.90;;;;;;5037455;28;20074;-79
2023/06/20 06:13:43;;;;;;;9.73;6.97;;;22.50;99.90;;;;;;5036339;28;20033;-79
2023/06/20 06:16:09;;;;;;;12.75;7.65;;;22.50;99.90;;;;;;5054448;28;20382;-79
2023/06/20 06:18:34;;;;;;;13.05;7.65;;;22.50;99.90;;;;;;5036672;28;20055;-79
2023/06/20 06:21:01;;;;;;;10.98;6.95;;;22.60;99.90;;;;;;5036307;28;20068;-80
2023/06/20 06:23:27;;;;;;;10.00;6.80;;;22.60;99.90;;;;;;5039443;28;20386;-80
2023/06/20 06:25:52;;;;;;;10.85;7.00;;;22.70;99.90;;;;;;5036650;28;20032;-80
2023/06/20 06:28:18;;;;;;;10.63;7.60;;;22.70;99.90;;;;;;5039902;28;20028;-80
2023/06/20 06:30:44;;;;;;;8.35;6.72;;;22.70;99.90;;;;;;5038629;28;20026;-80
2023/06/20 06:33:11;;;;;;;9.32;6.88;;;22.70;99.90;;;;;;5055509;28;20029;-80
2023/06/20 06:35:37;;;;;;;10.13;6.85;;;22.80;99.90;;;;;;5055026;28;20029;-80
2023/06/20 06:38:04;;;;;;;10.48;7.65;;;22.80;99.90;;;;;;5055096;28;20039;-80
2023/06/20 06:40:31;;;;;;;9.55;6.88;;;22.80;99.90;;;;;;5040950;28;20087;-80
2023/06/20 06:42:56;;;;;;;10.73;7.00;;;22.90;99.90;;;;;;5050465;28;20033;-82
2023/06/20 06:45:22;;;;;;;9.65;6.93;;;22.90;99.90;;;;;;5056757;28;20351;-81
2023/06/20 06:47:48;;;;;;;10.93;7.72;;;22.90;99.90;;;;;;5058477;28;20025;-81
2023/06/20 06:50:15;;;;;;;10.77;7.97;;;23.00;99.90;;;;;;5058682;28;20029;-81
2023/06/20 06:52:41;;;;;;;12.43;7.35;;;22.90;99.90;;;;;;5055354;28;20029;-82
2023/06/20 06:55:07;;;;;;;11.40;7.25;;;23.00;99.90;;;;;;5036873;28;20037;-82
2023/06/20 06:57:33;;;;;;;9.73;7.10;;;23.00;99.90;;;;;;5054966;28;20080;-82
2023/06/20 06:59:59;;;;;;;10.05;7.65;;;23.10;99.90;;;;;;5054618;28;20090;-81
2023/06/20 07:02:26;;;;;;;9.52;7.30;;;23.10;99.90;;;;;;5054755;28;20055;-81
2023/06/20 07:04:52;;;;;;;9.35;7.60;;;23.10;99.90;;;;;;5054708;28;20021;-82
2023/06/20 07:07:18;;;;;;;8.95;6.95;;;23.10;99.90;;;;;;5055705;28;20035;-80
2023/06/20 07:09:44;;;;;;;9.85;6.75;;;23.20;99.90;;;;;;5055359;28;20037;-82
2023/06/20 07:12:09;;;;;;;9.20;7.13;;;23.20;99.90;;;;;;5054759;28;20036;-82
2023/06/20 07:14:35;;;;;;;11.55;7.40;;;23.30;99.90;;;;;;5046098;28;20032;-80
2023/06/20 07:17:01;;;;;;;10.13;6.88;;;23.30;99.90;;;;;;5055687;28;20452;-81
2023/06/20 07:19:26;;;;;;;9.55;6.47;;;23.30;99.90;;;;;;5038273;28;20036;-80
2023/06/20 07:21:52;;;;;;;7.90;6.13;;;23.30;99.90;;;;;;5053993;28;20458;-81
2023/06/20 07:24:18;;;;;;;7.93;6.18;;;23.40;99.90;;;;;;5053083;28;20029;-80
2023/06/20 07:26:43;;;;;;;9.98;6.60;;;23.50;99.90;;;;;;5055131;28;20041;-80
2023/06/20 07:29:09;;;;;;;8.23;6.50;;;23.50;99.90;;;;;;5055329;28;20083;-79
2023/06/20 07:31:34;;;;;;;9.68;6.45;;;23.60;99.90;;;;;;5038195;28;20484;-79
2023/06/20 07:34:00;;;;;;;9.65;6.55;;;23.60;99.90;;;;;;5044532;28;20024;-79
2023/06/20 07:36:25;;;;;;;10.13;6.68;;;23.70;99.90;;;;;;5037932;28;20083;-80
2023/06/20 07:38:51;;;;;;;7.95;6.18;;;23.80;99.90;;;;;;5047161;28;20043;-79
2023/06/20 07:41:16;;;;;;;8.90;6.57;;;23.90;99.90;;;;;;5039790;28;20059;-79
2023/06/20 07:43:43;;;;;;;7.28;5.72;;;24.00;99.90;;;;;;5053973;28;20462;-79
2023/06/20 07:46:09;;;;;;;7.47;5.75;;;24.10;99.90;;;;;;5054076;28;20060;-79
2023/06/20 07:48:34;;;;;;;6.65;5.95;;;24.30;99.90;;;;;;5054632;28;20037;-79
2023/06/20 07:51:00;;;;;;;8.20;5.80;;;24.40;99.90;;;;;;5041814;28;20033;-79
2023/06/20 07:53:26;;;;;;;7.22;6.20;;;24.50;99.90;;;;;;5047713;28;20048;-78
2023/06/20 07:55:54;;;;;;;9.25;5.65;;;24.60;99.90;;;;;;5019879;28;20030;-79
2023/06/20 07:58:20;;;;;;;6.80;5.38;;;24.70;99.90;;;;;;5031159;28;20041;-79
2023/06/20 08:00:45;;;;;;;8.40;5.93;;;24.70;99.90;;;;;;5053885;28;20025;-78
2023/06/20 08:03:11;;;;;;;9.88;5.82;;;24.70;99.90;;;;;;5036727;28;20029;-78
2023/06/20 08:05:36;;;;;;;8.32;5.53;;;24.60;99.90;;;;;;5037486;28;20104;-81
2023/06/20 08:08:02;;;;;;;9.68;5.90;;;24.70;99.90;;;;;;5051980;28;20029;-79
2023/06/20 08:10:28;;;;;;;7.50;5.60;;;24.70;99.90;;;;;;5037226;28;20029;-78
2023/06/20 08:12:53;;;;;;;8.32;5.15;;;24.70;99.90;;;;;;5047932;28;20029;-80
2023/06/20 08:15:19;;;;;;;8.82;5.75;;;24.80;99.90;;;;;;5039003;28;20378;-79
2023/06/20 08:17:44;;;;;;;6.95;5.60;;;24.90;99.90;;;;;;5054175;28;20124;-80
2023/06/20 08:20:10;;;;;;;8.63;5.78;;;24.90;99.90;;;;;;5048057;28;20032;-80
2023/06/20 08:22:36;;;;;;;8.00;6.05;;;25.00;99.90;;;;;;5036161;28;20024;-80
2023/06/20 08:25:03;;;;;;;11.50;6.13;;;25.10;99.90;;;;;;5036304;28;20029;-79
2023/06/20 08:27:28;;;;;;;11.50;7.32;;;25.10;99.90;;;;;;5036821;28;20032;-79
2023/06/20 08:29:54;;;;;;;11.30;6.65;;;25.20;99.90;;;;;;5036188;28;20033;-80
2023/06/20 08:32:20;;;;;;;9.75;5.80;;;25.20;99.90;;;;;;5036563;28;20021;-80
2023/06/20 08:34:49;;;;;;;7.45;5.65;;;25.20;99.90;;;;;;5035844;28;20029;-82
2023/06/20 08:37:18;;;;;;;10.02;6.68;;;25.10;99.90;;;;;;5053017;28;20494;-80
2023/06/20 08:39:43;;;;;;;7.55;5.40;;;25.10;99.90;;;;;;5053704;28;20029;-82
2023/06/20 08:42:10;;;;;;;9.55;5.60;;;25.10;99.90;;;;;;5039712;28;20017;-80
2023/06/20 08:44:36;;;;;;;7.55;5.85;;;25.10;99.90;;;;;;5052540;28;20094;-80
2023/06/20 08:47:02;;;;;;;7.75;6.40;;;25.10;99.90;;;;;;5031587;28;20549;-80
2023/06/20 08:49:28;;;;;;;7.03;5.60;;;25.10;99.90;;;;;;5046356;28;20104;-81
2023/06/20 08:51:58;;;;;;;9.10;5.95;;;25.10;99.90;;;;;;5024699;28;20160;-81
2023/06/20 08:54:28;;;;;;;7.65;5.70;;;25.10;99.90;;;;;;5030203;28;20056;-79
2023/06/20 08:56:54;;;;;;;9.07;6.88;;;25.20;99.90;;;;;;5025351;28;20132;-81
2023/06/20 08:59:22;;;;;;;7.63;5.30;;;25.20;99.90;;;;;;5032987;28;20513;-80
2023/06/20 09:01:48;;;;;;;8.98;5.40;;;25.20;99.90;;;;;;5051099;28;20029;-81
2023/06/20 09:04:14;;;;;;;6.72;5.13;;;25.30;99.90;;;;;;5049382;28;20036;-80
2023/06/20 09:06:39;;;;;;;8.00;5.40;;;25.20;99.90;;;;;;5040414;28;20032;-80
2023/06/20 09:09:06;;;;;;;7.70;5.45;;;25.40;99.90;;;;;;5035276;28;20641;-81
2023/06/20 09:11:35;;;;;;;9.77;5.85;;;25.40;99.90;;;;;;5051293;28;20474;-80
2023/06/20 09:14:01;;;;;;;7.20;5.68;;;25.50;99.90;;;;;;5032121;28;20040;-82
2023/06/20 09:16:30;;;;;;;7.18;4.90;;;25.50;99.90;;;;;;5050157;28;20032;-85
2023/06/20 09:19:02;;;;;;;12.15;5.95;;;25.60;99.90;;;;;;5034167;28;20154;-82
2023/06/20 09:21:28;;;;;;;8.23;5.15;;;25.70;99.90;;;;;;5051131;28;20087;-81
2023/06/20 09:24:18;;;;;;;6.07;5.03;;;25.70;99.90;;;;;;5045660;28;20056;-80
2023/06/20 09:26:44;;;;;;;7.28;5.13;;;25.70;99.90;;;;;;5015595;28;20033;-81
2023/06/20 09:29:14;;;;;;;6.13;5.35;;;25.70;99.90;;;;;;5024897;28;20119;-83
2023/06/20 09:31:49;;;;;;;7.65;5.07;;;25.70;99.90;;;;;;5035172;28;20033;-83
2023/06/20 09:34:19;;;;;;;7.57;5.07;;;25.80;99.90;;;;;;5053276;28;20031;-84
2023/06/20 09:36:46;;;;;;;5.63;4.93;;;25.80;99.90;;;;;;5027930;28;20437;-81
2023/06/20 09:39:20;;;;;;;7.10;5.00;;;25.90;99.90;;;;;;5050532;28;20104;-80
2023/06/20 09:41:47;;;;;;;9.50;5.07;;;26.00;99.90;;;;;;5030055;28;20028;-80
2023/06/20 09:44:13;;;;;;;8.80;5.47;;;26.10;99.90;;;;;;5038246;28;20021;-80
2023/06/20 09:46:40;;;;;;;8.90;5.57;;;26.10;99.90;;;;;;5035041;28;20037;-80
2023/06/20 09:49:06;;;;;;;7.07;4.88;;;26.10;99.90;;;;;;5034823;28;20029;-80
2023/06/20 09:51:42;;;;;;;11.65;7.82;;;26.10;99.90;;;;;;5024151;28;20049;-79
2023/06/20 09:54:15;;;;;;;7.70;5.65;;;26.10;99.90;;;;;;5034365;28;20087;-78
2023/06/20 09:56:47;;;;;;;8.20;5.38;;;26.20;99.90;;;;;;5037143;28;20048;-79
2023/06/20 09:59:16;;;;;;;7.50;5.47;;;26.20;99.90;;;;;;5038478;28;20077;-78
2023/06/20 10:01:42;;;;;;;8.48;5.22;;;26.20;99.90;;;;;;5039797;28;20047;-79
2023/06/20 10:04:08;;;;;;;7.07;4.97;;;26.30;99.90;;;;;;5038639;28;20484;-79
2023/06/20 10:06:38;;;;;;;7.80;5.60;;;26.30;99.90;;;;;;5046688;28;20091;-77
2023/06/20 10:09:07;;;;;;;6.25;5.30;;;26.30;99.90;;;;;;5054249;28;20494;-77
2023/06/20 10:11:41;;;;;;;8.10;5.65;;;26.50;99.90;;;;;;5036958;28;20032;-78
2023/06/20 10:14:08;;;;;;;9.02;5.55;;;26.50;99.90;;;;;;5053634;28;20501;-80
2023/06/20 10:16:34;;;;;;;6.93;5.15;;;26.50;99.90;;;;;;5047196;28;20095;-78
2023/06/20 10:19:16;;;;;;;6.38;4.88;;;26.50;99.90;;;;;;5041794;28;20463;-78
2023/06/20 10:21:59;;;;;;;6.80;5.10;;;26.70;99.90;;;;;;5055794;28;20351;-78
2023/06/20 10:24:30;;;;;;;7.30;5.40;;;26.70;99.90;;;;;;5025150;28;20132;-78
2023/06/20 10:26:59;;;;;;;7.75;5.00;;;26.70;99.40;;;;;;5021623;28;20095;-77
2023/06/20 10:29:26;;;;;;;6.70;5.38;;;26.70;99.50;;;;;;5051392;28;20501;-77
2023/06/20 10:32:05;;;;;;;8.80;6.80;;;26.80;99.30;;;;;;5053964;28;20462;-76
2023/06/20 10:34:39;;;;;;;10.00;7.50;;;26.90;99.40;;;;;;5038905;28;20025;-77
2023/06/20 10:37:19;;;;;;;8.50;5.00;;;27.00;99.30;;;;;;5054102;28;20370;-77
2023/06/20 10:39:55;;;;;;;6.60;5.03;;;27.00;99.10;;;;;;5022742;28;20401;-78
2023/06/20 10:42:42;;;;;;;10.48;5.85;;;27.00;98.70;;;;;;5043279;28;20032;-77
2023/06/20 10:45:21;;;;;;;6.47;4.70;;;27.10;99.40;;;;;;5037031;28;20071;-78
2023/06/20 10:47:47;;;;;;;8.55;5.53;;;27.10;99.30;;;;;;5050249;28;20123;-78
2023/06/20 10:50:14;;;;;;;7.93;5.25;;;27.20;98.80;;;;;;5034060;28;20021;-78
2023/06/20 10:52:40;;;;;;;6.47;5.03;;;27.20;98.50;;;;;;5046554;28;20025;-77
2023/06/20 10:55:26;;;;;;;9.45;4.95;;;27.20;98.70;;;;;;5033552;28;20078;-78
2023/06/20 10:57:52;;;;;;;5.93;4.68;;;27.40;98.40;;;;;;5041225;28;20045;-76
2023/06/20 11:00:21;;;;;;;6.90;5.13;;;27.40;98.50;;;;;;5054276;28;20096;-78
2023/06/20 11:02:48;;;;;;;6.45;4.85;;;27.50;97.90;;;;;;5037417;28;20029;-76
2023/06/20 11:05:15;;;;;;;7.40;4.95;;;27.50;97.60;;;;;;5036914;28;20025;-78
2023/06/20 11:08:00;;;;;;;6.90;4.82;;;27.50;97.50;;;;;;5054347;28;20043;-81
2023/06/20 11:10:31;;;;;;;8.38;5.40;;;27.50;97.10;;;;;;5038245;28;20029;-79
2023/06/20 11:12:59;;;;;;;9.88;5.05;;;27.60;97.00;;;;;;5055049;28;20029;-80
2023/06/20 11:15:25;;;;;;;8.07;4.65;;;27.60;96.70;;;;;;5051914;28;20041;-80
2023/06/20 11:17:51;;;;;;;8.75;4.88;;;27.70;97.20;;;;;;5045519;28;20032;-79
2023/06/20 11:20:20;;;;;;;8.30;4.95;;;27.70;96.70;;;;;;5054409;28;20106;-82
2023/06/20 11:22:49;;;;;;;8.20;4.80;;;27.80;96.70;;;;;;5054762;28;20376;-79
2023/06/20 11:25:26;;;;;;;11.30;5.20;;;27.80;96.70;;;;;;5054548;28;20031;-79
2023/06/20 11:27:52;;;;;;;8.50;5.05;;;27.90;96.60;;;;;;5054479;28;20032;-77
2023/06/20 11:30:28;;;;;;;6.88;4.93;;;28.00;96.10;;;;;;5047304;28;20048;-77
2023/06/20 11:33:04;;;;;;;6.72;4.95;;;28.10;95.70;;;;;;5040127;28;20060;-80
2023/06/20 11:35:40;;;;;;;8.05;5.05;;;28.20;95.30;;;;;;5052292;28;20021;-80
2023/06/20 11:38:06;;;;;;;5.43;4.70;;;28.20;95.40;;;;;;5053353;28;20041;-78
2023/06/20 11:40:31;;;;;;;9.43;4.82;;;28.20;95.20;;;;;;5037165;28;20036;-80
2023/06/20 11:42:57;;;;;;;7.55;5.00;;;28.30;95.40;;;;;;5039302;28;20029;-80
2023/06/20 11:45:26;;;;;;;6.47;4.75;;;28.30;94.80;;;;;;5054735;28;20466;-80
2023/06/20 11:48:14;;;;;;;7.90;4.65;;;28.40;95.20;;;;;;5054874;28;20032;-84
2023/06/20 11:50:42;;;;;;;5.70;5.03;;;28.50;95.00;;;;;;5046364;28;20520;-82
2023/06/20 11:53:31;;;;;;;8.32;4.68;;;28.50;95.10;;;;;;5022393;28;20033;-85
2023/06/20 11:55:59;;;;;;;5.60;5.07;;;28.60;94.40;;;;;;5017324;28;20106;-86
2023/06/20 11:58:26;;;;;;;7.07;4.70;;;28.60;94.30;;;;;;5043952;28;20179;-91
2023/06/20 12:01:04;;;;;;;8.40;4.93;;;28.60;94.50;;;;;;5055325;28;20032;-88
2023/06/20 12:03:31;;;;;;;10.25;5.40;;;28.70;94.50;;;;;;5048620;28;20119;-85
2023/06/20 12:05:56;;;;;;;6.00;4.75;;;28.80;94.10;;;;;;5040506;28;20462;-87
2023/06/20 12:08:24;;;;;;;8.05;4.95;;;28.90;93.90;;;;;;5046597;28;20029;-83
2023/06/20 12:11:01;;;;;;;8.95;4.97;;;28.90;93.60;;;;;;5036955;28;20094;-84
2023/06/20 12:13:28;;;;;;;7.43;4.82;;;29.00;93.50;;;;;;5036974;28;20029;-83
2023/06/20 12:15:54;;;;;;;5.80;4.82;;;29.00;93.30;;;;;;5052803;28;20144;-82
2023/06/20 12:18:20;;;;;;;6.47;3.88;;;29.00;93.10;;;;;;5018152;28;20025;-82
2023/06/20 12:20:46;;;;;;;6.40;4.68;;;29.10;93.20;;;;;;5016419;28;20567;-81
2023/06/20 12:23:12;;;;;;;7.45;4.90;;;29.10;92.90;;;;;;5039733;28;20056;-78
2023/06/20 12:25:38;;;;;;;6.72;4.90;;;29.20;93.00;;;;;;5031839;28;20027;-82
2023/06/20 12:28:03;;;;;;;5.43;4.45;;;29.30;92.90;;;;;;5038205;28;20029;-82
2023/06/20 12:30:30;;;;;;;9.25;5.22;;;29.30;91.80;;;;;;5051074;28;20074;-82
2023/06/20 12:32:58;;;;;;;7.22;4.88;;;29.40;91.40;;;;;;5053232;28;20084;-81
2023/06/20 12:35:25;;;;;;;7.55;5.47;;;29.50;91.10;;;;;;5036659;28;20518;-81
2023/06/20 12:37:50;;;;;;;5.88;5.00;;;29.60;91.10;;;;;;5037854;28;20041;-85
2023/06/20 12:40:16;;;;;;;6.10;4.85;;;29.60;90.70;;;;;;5052954;28;20082;-82
2023/06/20 12:42:42;;;;;;;6.97;5.05;;;29.70;90.60;;;;;;5053306;28;20036;-88
2023/06/20 12:45:10;;;;;;;6.82;5.10;;;29.70;90.80;;;;;;5045132;28;20047;-85
2023/06/20 12:47:36;;;;;;;8.18;5.00;;;29.80;90.30;;;;;;5037440;28;20100;-83
2023/06/20 12:50:02;;;;;;;10.20;5.22;;;30.00;90.00;;;;;;5023512;28;20071;-83